Time;durP1;ratioP1;P1;durP2;ratioP2;P2;SDS_P1;SDS_P2;PMS_P1;PMS_P2;Temp;Humidity;BMP_temperature;BMP_pressure;BME280_temperature;BME280_humidity;BME280_pressure;Samples;Min_cycle;Max_cycle;Signal;HPM_P1;HPM_P2
2022/01/09 00:00:47;;;;;;;0.10;0.10;;;3.30;99.90;;;;;;5148190;28;20047;-81
2022/01/09 00:03:13;;;;;;;0.10;0.10;;;3.40;99.90;;;;;;5131249;28;20047;-82
2022/01/09 00:05:40;;;;;;;0.10;0.10;;;3.40;99.90;;;;;;5130718;28;20102;-82
2022/01/09 00:08:07;;;;;;;0.20;0.20;;;3.40;99.90;;;;;;5131393;28;20044;-82
2022/01/09 00:10:35;;;;;;;0.20;0.20;;;3.60;99.90;;;;;;5114247;28;20036;-84
2022/01/09 00:13:02;;;;;;;0.10;0.10;;;3.40;99.90;;;;;;5113737;28;20224;-79
2022/01/09 00:15:29;;;;;;;0.10;0.10;;;3.40;99.90;;;;;;5130669;28;20062;-82
2022/01/09 00:17:56;;;;;;;0.10;0.10;;;3.50;99.90;;;;;;5130817;28;20035;-79
2022/01/09 00:20:22;;;;;;;0.10;0.10;;;3.40;99.90;;;;;;5131165;28;20043;-79
2022/01/09 00:22:51;;;;;;;0.10;0.10;;;3.40;99.90;;;;;;5113815;28;20531;-82
2022/01/09 00:25:20;;;;;;;0.10;0.10;;;3.50;99.90;;;;;;5114410;28;20412;-80
2022/01/09 00:27:48;;;;;;;0.10;0.10;;;4.10;99.90;;;;;;5130425;28;20074;-82
2022/01/09 00:30:17;;;;;;;0.20;0.20;;;3.50;99.90;;;;;;5113984;28;20400;-80
2022/01/09 00:32:44;;;;;;;0.10;0.10;;;3.40;99.90;;;;;;5130354;28;20031;-80
2022/01/09 00:35:12;;;;;;;0.13;0.13;;;3.40;99.90;;;;;;5097148;28;20036;-80
2022/01/09 00:37:39;;;;;;;0.30;0.30;;;3.50;99.90;;;;;;5130498;28;20492;-80
2022/01/09 00:40:09;;;;;;;0.10;0.10;;;3.80;99.90;;;;;;5130219;28;20449;-80
2022/01/09 00:42:36;;;;;;;0.13;0.13;;;3.40;99.90;;;;;;5113914;28;20067;-82
2022/01/09 00:45:04;;;;;;;0.10;0.10;;;3.50;99.90;;;;;;5112513;28;20086;-80
2022/01/09 00:47:31;;;;;;;0.13;0.13;;;3.40;99.90;;;;;;5113282;28;20028;-80
2022/01/09 00:49:58;;;;;;;0.13;0.13;;;3.50;99.90;;;;;;5096590;28;20080;-79
2022/01/09 00:52:25;;;;;;;0.20;0.20;;;3.40;99.90;;;;;;5130626;28;20043;-81
2022/01/09 00:54:52;;;;;;;0.10;0.10;;;3.50;99.90;;;;;;5113226;28;20042;-82
2022/01/09 00:57:18;;;;;;;0.10;0.10;;;4.00;99.90;;;;;;5130340;28;20124;-83
2022/01/09 00:59:45;;;;;;;0.20;0.20;;;3.90;99.90;;;;;;5096409;28;20047;-80
2022/01/09 01:02:12;;;;;;;0.15;0.15;;;4.40;99.90;;;;;;5096511;28;20071;-80
2022/01/09 01:04:40;;;;;;;0.10;0.10;;;3.50;99.90;;;;;;5130388;28;20039;-80
2022/01/09 01:07:07;;;;;;;0.10;0.10;;;4.20;99.90;;;;;;5096651;28;20506;-80
2022/01/09 01:09:33;;;;;;;0.20;0.20;;;3.60;99.90;;;;;;5113450;28;20036;-82
2022/01/09 01:12:01;;;;;;;0.10;0.10;;;3.50;99.90;;;;;;5129909;28;20043;-80
2022/01/09 01:14:29;;;;;;;0.10;0.10;;;3.40;99.90;;;;;;5096317;28;20051;-82
2022/01/09 01:16:56;;;;;;;0.10;0.10;;;3.40;99.90;;;;;;5129807;28;20050;-80
2022/01/09 01:19:23;;;;;;;0.20;0.20;;;3.80;99.90;;;;;;5096623;28;20040;-80
2022/01/09 01:21:50;;;;;;;0.10;0.10;;;3.90;99.90;;;;;;5129745;28;20381;-80
2022/01/09 01:24:18;;;;;;;0.10;0.10;;;4.40;99.90;;;;;;5113469;28;20247;-79
2022/01/09 01:26:45;;;;;;;0.10;0.10;;;3.40;99.90;;;;;;5130124;28;20043;-82
2022/01/09 01:29:12;;;;;;;0.10;0.10;;;3.50;99.90;;;;;;5129438;28;20039;-83
2022/01/09 01:31:39;;;;;;;0.10;0.10;;;3.50;99.90;;;;;;5146497;28;20177;-83
2022/01/09 01:34:06;;;;;;;0.10;0.10;;;3.80;99.90;;;;;;5129398;28;20036;-82
2022/01/09 01:36:32;;;;;;;0.10;0.10;;;3.70;99.90;;;;;;5113156;28;20092;-81
2022/01/09 01:38:59;;;;;;;0.10;0.10;;;3.40;99.90;;;;;;5132180;28;20050;-81
2022/01/09 01:41:26;;;;;;;0.10;0.10;;;3.50;99.90;;;;;;5117188;28;20040;-81
2022/01/09 01:43:53;;;;;;;0.10;0.10;;;3.50;99.90;;;;;;5117031;28;20122;-83
2022/01/09 01:46:19;;;;;;;0.10;0.10;;;3.90;99.90;;;;;;5116866;28;20040;-81
2022/01/09 01:48:46;;;;;;;0.20;0.20;;;3.70;99.90;;;;;;5100349;28;20035;-81
2022/01/09 01:51:13;;;;;;;0.10;0.10;;;3.70;99.90;;;;;;5133563;28;20496;-82
2022/01/09 01:53:40;;;;;;;0.20;0.20;;;3.40;99.90;;;;;;5117516;28;20035;-79
2022/01/09 01:56:07;;;;;;;0.10;0.10;;;3.50;99.90;;;;;;5099963;28;20511;-80
2022/01/09 01:58:35;;;;;;;0.10;0.10;;;3.50;99.90;;;;;;5117023;28;20039;-82
2022/01/09 02:01:02;;;;;;;0.10;0.10;;;3.50;99.90;;;;;;5132997;28;20051;-80
2022/01/09 02:03:29;;;;;;;0.10;0.10;;;4.00;99.90;;;;;;5133176;28;20046;-82
2022/01/09 02:05:55;;;;;;;0.10;0.10;;;3.40;99.90;;;;;;5116435;28;20126;-82
2022/01/09 02:08:23;;;;;;;0.10;0.10;;;3.40;99.90;;;;;;5099975;28;20039;-80
2022/01/09 02:10:49;;;;;;;0.10;0.10;;;3.40;99.90;;;;;;5099699;28;20039;-80
2022/01/09 02:13:18;;;;;;;0.10;0.10;;;3.40;99.90;;;;;;5133185;28;20042;-80
2022/01/09 02:15:47;;;;;;;0.20;0.20;;;3.40;99.90;;;;;;5167133;27;20515;-80
2022/01/09 02:18:19;;;;;;;0.10;0.10;;;3.40;99.90;;;;;;5149769;28;20055;-82
2022/01/09 02:20:47;;;;;;;0.10;0.10;;;3.40;99.90;;;;;;5150162;28;20050;-79
2022/01/09 02:23:16;;;;;;;0.10;0.10;;;3.40;99.90;;;;;;5167003;27;20036;-82
2022/01/09 02:25:43;;;;;;;0.10;0.10;;;3.40;99.90;;;;;;5149718;28;20381;-81
2022/01/09 02:28:12;;;;;;;0.10;0.10;;;4.00;99.90;;;;;;5167139;27;20032;-82
2022/01/09 02:30:40;;;;;;;0.10;0.10;;;3.70;99.90;;;;;;5167001;27;20040;-80
2022/01/09 02:33:10;;;;;;;0.10;0.10;;;3.90;99.90;;;;;;5166623;27;20043;-80
2022/01/09 02:35:37;;;;;;;0.10;0.10;;;3.40;99.90;;;;;;5166726;27;20515;-81
2022/01/09 02:38:05;;;;;;;0.20;0.20;;;3.40;99.90;;;;;;5149891;28;20046;-81
2022/01/09 02:40:32;;;;;;;0.10;0.10;;;3.40;99.90;;;;;;5149937;28;20046;-80
2022/01/09 02:43:00;;;;;;;0.10;0.10;;;3.80;99.90;;;;;;5166591;27;20039;-79
2022/01/09 02:45:27;;;;;;;0.10;0.10;;;4.00;99.90;;;;;;5132757;28;20450;-79
2022/01/09 02:47:55;;;;;;;0.20;0.20;;;3.60;99.90;;;;;;5132515;28;20796;-80
2022/01/09 02:53:13;;;;;;;0.20;0.20;;;3.40;99.90;;;;;;5132507;28;20088;-81
2022/01/09 02:55:41;;;;;;;0.10;0.10;;;3.70;99.90;;;;;;5166823;27;20062;-81
2022/01/09 02:58:07;;;;;;;0.20;0.20;;;3.40;99.90;;;;;;5149337;28;20039;-81
2022/01/09 03:00:37;;;;;;;0.10;0.10;;;3.40;99.90;;;;;;5115358;28;20116;-80
2022/01/09 03:03:04;;;;;;;0.10;0.10;;;3.40;99.90;;;;;;5166029;27;20044;-79
2022/01/09 03:05:32;;;;;;;0.10;0.10;;;3.40;99.90;;;;;;5148967;28;20040;-82
2022/01/09 03:07:58;;;;;;;0.10;0.10;;;3.50;99.90;;;;;;5132057;28;20082;-80
2022/01/09 03:10:26;;;;;;;0.10;0.10;;;3.50;99.90;;;;;;5165891;27;20079;-83
2022/01/09 03:12:55;;;;;;;0.10;0.10;;;4.30;99.90;;;;;;5115447;28;20043;-81
2022/01/09 03:15:23;;;;;;;0.10;0.10;;;3.50;99.90;;;;;;5148749;28;20949;-82
2022/01/09 03:17:50;;;;;;;0.10;0.10;;;4.00;99.90;;;;;;5165794;27;20070;-82
2022/01/09 03:20:22;;;;;;;0.10;0.10;;;3.50;99.90;;;;;;5148475;28;20043;-82
2022/01/09 03:22:50;;;;;;;0.10;0.10;;;3.50;99.90;;;;;;5165773;27;20549;-80
2022/01/09 03:25:17;;;;;;;0.20;0.20;;;3.50;99.90;;;;;;5148312;28;20042;-82
2022/01/09 03:27:45;;;;;;;0.10;0.10;;;3.50;99.90;;;;;;5165445;27;20074;-82
2022/01/09 03:30:12;;;;;;;0.10;0.10;;;3.60;99.90;;;;;;5165326;27;20131;-82
2022/01/09 03:32:41;;;;;;;0.13;0.13;;;3.60;99.90;;;;;;5148802;28;20108;-82
2022/01/09 03:35:10;;;;;;;0.10;0.10;;;3.60;99.90;;;;;;5165580;27;20141;-80
2022/01/09 03:37:38;;;;;;;0.10;0.10;;;3.60;99.90;;;;;;5165777;27;20051;-80
2022/01/09 03:40:07;;;;;;;0.10;0.10;;;3.60;99.90;;;;;;5131651;28;20035;-80
2022/01/09 03:42:34;;;;;;;0.10;0.10;;;3.60;99.90;;;;;;5165586;27;20128;-80
2022/01/09 03:45:03;;;;;;;0.10;0.10;;;4.30;99.90;;;;;;5131121;28;20042;-82
2022/01/09 03:47:29;;;;;;;0.10;0.10;;;3.60;99.90;;;;;;5148003;28;20059;-80
2022/01/09 03:49:56;;;;;;;0.10;0.10;;;3.60;99.90;;;;;;5114799;28;20420;-81
2022/01/09 03:52:27;;;;;;;0.10;0.10;;;3.60;99.90;;;;;;5114563;28;20119;-82
2022/01/09 03:54:55;;;;;;;0.10;0.10;;;3.60;99.90;;;;;;5148678;27;20040;-82
2022/01/09 03:57:22;;;;;;;0.10;0.10;;;3.80;99.90;;;;;;5147858;28;20035;-82
2022/01/09 03:59:49;;;;;;;0.10;0.10;;;4.00;99.90;;;;;;5130918;28;20047;-80
2022/01/09 04:02:15;;;;;;;0.10;0.10;;;4.10;99.90;;;;;;5147189;28;20043;-82
2022/01/09 04:04:42;;;;;;;0.10;0.10;;;3.70;99.90;;;;;;5164856;27;20500;-80
2022/01/09 04:07:10;;;;;;;0.10;0.10;;;3.70;99.90;;;;;;5148332;28;20035;-83
2022/01/09 04:09:39;;;;;;;0.10;0.10;;;3.70;99.90;;;;;;5130964;28;20058;-82
2022/01/09 04:12:14;;;;;;;0.10;0.10;;;3.70;99.90;;;;;;5164991;27;20047;-80
2022/01/09 04:14:47;;;;;;;0.10;0.10;;;3.80;99.90;;;;;;5165118;27;20054;-82
2022/01/09 04:17:27;;;;;;;0.10;0.10;;;3.90;99.90;;;;;;5164979;27;20488;-80
2022/01/09 04:19:54;;;;;;;0.10;0.10;;;3.90;99.90;;;;;;5165308;27;20028;-82
2022/01/09 04:22:21;;;;;;;0.10;0.10;;;4.00;99.90;;;;;;5147537;28;20495;-79
2022/01/09 04:24:47;;;;;;;0.17;0.17;;;4.00;99.90;;;;;;5113815;28;20493;-79
2022/01/09 04:27:14;;;;;;;0.10;0.10;;;4.00;99.90;;;;;;5113812;28;20066;-80
2022/01/09 04:29:41;;;;;;;0.10;0.10;;;4.20;99.90;;;;;;5130357;28;20027;-82
2022/01/09 04:32:08;;;;;;;0.10;0.10;;;4.20;99.90;;;;;;5113700;28;20039;-82
2022/01/09 04:34:35;;;;;;;0.10;0.10;;;4.30;99.90;;;;;;5147338;28;20122;-82
2022/01/09 04:37:02;;;;;;;0.10;0.10;;;4.30;99.90;;;;;;5182123;27;20122;-80
2022/01/09 04:39:29;;;;;;;0.10;0.10;;;4.30;99.90;;;;;;5147195;28;20052;-82
2022/01/09 04:41:56;;;;;;;0.10;0.10;;;4.40;99.90;;;;;;5113508;28;20039;-82
2022/01/09 04:44:23;;;;;;;0.10;0.10;;;4.40;99.90;;;;;;5163788;27;20040;-79
2022/01/09 04:46:57;;;;;;;0.10;0.10;;;4.40;99.90;;;;;;5113438;28;20040;-79
2022/01/09 04:49:28;;;;;;;0.10;0.10;;;4.50;99.90;;;;;;5163839;27;20399;-80
2022/01/09 04:51:56;;;;;;;0.10;0.10;;;5.00;99.90;;;;;;5130786;28;20040;-80
2022/01/09 04:54:23;;;;;;;0.10;0.10;;;4.50;99.90;;;;;;5113351;28;20476;-80
2022/01/09 04:56:49;;;;;;;0.10;0.10;;;4.50;99.90;;;;;;5130223;28;20047;-80
2022/01/09 04:59:16;;;;;;;0.10;0.10;;;4.50;99.90;;;;;;5113065;28;20043;-80
2022/01/09 05:01:43;;;;;;;0.10;0.10;;;4.50;99.90;;;;;;5112985;28;20051;-79
2022/01/09 05:04:09;;;;;;;0.00;0.00;;;4.60;99.90;;;;;;5146803;28;20036;-80
2022/01/09 05:06:37;;;;;;;0.10;0.10;;;4.60;99.90;;;;;;5112813;28;20077;-82
2022/01/09 05:09:04;;;;;;;0.10;0.10;;;4.50;99.90;;;;;;5164062;27;20027;-81
2022/01/09 05:11:30;;;;;;;0.10;0.10;;;5.40;99.90;;;;;;5112754;28;20633;-82
2022/01/09 05:13:57;;;;;;;0.10;0.10;;;5.00;99.90;;;;;;5112203;28;20054;-80
2022/01/09 05:16:24;;;;;;;0.10;0.10;;;5.20;99.90;;;;;;5112555;28;20044;-80
2022/01/09 05:18:53;;;;;;;0.30;0.30;;;4.70;99.90;;;;;;5129884;28;20047;-80
2022/01/09 05:21:20;;;;;;;0.10;0.10;;;4.90;99.90;;;;;;5146992;28;20043;-80
2022/01/09 05:23:47;;;;;;;0.10;0.10;;;4.90;99.90;;;;;;5113312;28;20510;-82
2022/01/09 05:26:14;;;;;;;0.10;0.10;;;4.90;99.90;;;;;;5147031;28;20044;-82
2022/01/09 05:28:41;;;;;;;0.10;0.10;;;5.00;99.90;;;;;;5112292;28;20043;-81
2022/01/09 05:31:07;;;;;;;0.10;0.10;;;5.00;99.90;;;;;;5163740;28;20134;-82
2022/01/09 05:33:34;;;;;;;0.10;0.10;;;5.00;99.90;;;;;;5129250;28;20467;-80
2022/01/09 05:36:01;;;;;;;0.10;0.10;;;5.00;99.90;;;;;;5146820;28;20050;-82
2022/01/09 05:38:28;;;;;;;0.10;0.10;;;5.10;99.90;;;;;;5163248;28;20108;-82
2022/01/09 05:40:55;;;;;;;0.10;0.10;;;5.10;99.90;;;;;;5129772;28;20046;-80
2022/01/09 05:43:22;;;;;;;0.10;0.10;;;5.40;99.90;;;;;;5146248;28;20043;-79
2022/01/09 05:45:49;;;;;;;0.10;0.10;;;5.20;99.90;;;;;;5163228;28;20464;-82
2022/01/09 05:48:16;;;;;;;0.20;0.20;;;5.20;99.90;;;;;;5112420;28;20067;-80
2022/01/09 05:50:44;;;;;;;0.10;0.10;;;5.20;99.90;;;;;;5112310;28;20050;-80
2022/01/09 05:53:11;;;;;;;0.10;0.10;;;5.30;99.90;;;;;;5163495;28;20533;-82
2022/01/09 05:55:38;;;;;;;0.10;0.10;;;5.20;99.90;;;;;;5146197;28;20035;-80
2022/01/09 05:58:04;;;;;;;0.10;0.10;;;5.50;99.90;;;;;;5129618;28;20122;-82
2022/01/09 06:00:31;;;;;;;0.10;0.10;;;5.30;99.90;;;;;;5145996;28;20537;-82
2022/01/09 06:02:58;;;;;;;0.13;0.13;;;5.30;99.90;;;;;;5112534;28;20618;-83
2022/01/09 06:05:25;;;;;;;0.10;0.10;;;5.40;99.90;;;;;;5129343;28;20500;-80
2022/01/09 06:07:51;;;;;;;0.10;0.10;;;5.30;99.90;;;;;;5163245;28;21929;-82
2022/01/09 06:10:18;;;;;;;0.10;0.10;;;5.30;99.90;;;;;;5112473;28;20050;-83
2022/01/09 06:12:45;;;;;;;0.10;0.10;;;5.30;99.90;;;;;;5128710;28;20100;-82
2022/01/09 06:15:11;;;;;;;0.17;0.17;;;5.30;99.90;;;;;;5140480;28;20044;-79
2022/01/09 06:17:41;;;;;;;0.10;0.10;;;5.30;99.90;;;;;;5144898;28;20048;-82
2022/01/09 06:20:09;;;;;;;0.10;0.10;;;5.30;99.90;;;;;;5129428;28;20542;-81
2022/01/09 06:22:36;;;;;;;0.10;0.10;;;5.30;99.90;;;;;;5112241;28;20145;-81
2022/01/09 06:25:04;;;;;;;0.10;0.10;;;5.30;99.90;;;;;;5131816;28;20082;-81
2022/01/09 06:27:31;;;;;;;0.10;0.10;;;5.20;99.90;;;;;;5116215;28;20130;-81
2022/01/09 06:29:58;;;;;;;0.10;0.10;;;5.20;99.90;;;;;;5132770;28;20126;-83
2022/01/09 06:32:25;;;;;;;0.10;0.10;;;6.00;99.90;;;;;;5116400;28;20035;-81
2022/01/09 06:34:52;;;;;;;0.10;0.10;;;5.20;99.90;;;;;;5099263;28;20082;-81
2022/01/09 06:37:18;;;;;;;0.10;0.10;;;5.20;99.90;;;;;;5116175;28;20548;-83
2022/01/09 06:39:45;;;;;;;0.10;0.10;;;5.20;99.90;;;;;;5132648;28;20096;-83
2022/01/09 06:42:12;;;;;;;0.10;0.10;;;5.20;99.90;;;;;;5132989;28;20088;-83
2022/01/09 06:44:39;;;;;;;0.10;0.10;;;5.20;99.90;;;;;;5098755;28;20449;-82
2022/01/09 06:47:06;;;;;;;0.10;0.10;;;5.20;99.90;;;;;;5133197;28;20044;-82
2022/01/09 06:49:34;;;;;;;0.10;0.10;;;5.20;99.90;;;;;;5115628;28;20516;-81
2022/01/09 06:52:02;;;;;;;0.10;0.10;;;5.50;99.90;;;;;;5116266;28;20491;-82
2022/01/09 06:54:29;;;;;;;0.00;0.00;;;5.10;99.90;;;;;;5116031;28;20036;-80
2022/01/09 06:56:56;;;;;;;0.10;0.10;;;5.10;99.90;;;;;;5115404;28;20039;-79
2022/01/09 06:59:23;;;;;;;0.10;0.10;;;5.10;99.90;;;;;;5115571;28;20039;-80
2022/01/09 07:01:50;;;;;;;0.10;0.10;;;5.10;99.90;;;;;;5098572;28;20047;-80
2022/01/09 07:04:17;;;;;;;0.10;0.10;;;5.70;99.90;;;;;;5099101;28;20082;-79
2022/01/09 07:06:44;;;;;;;0.10;0.10;;;5.10;99.90;;;;;;5131604;28;20768;-80
2022/01/09 07:09:11;;;;;;;0.20;0.20;;;5.10;99.90;;;;;;5094929;28;20037;-82
2022/01/09 07:11:37;;;;;;;0.10;0.10;;;5.10;99.90;;;;;;5109176;28;20127;-82
2022/01/09 07:14:04;;;;;;;0.08;0.08;;;5.10;99.90;;;;;;5138930;28;20486;-80
2022/01/09 07:16:32;;;;;;;0.10;0.10;;;5.00;99.90;;;;;;5127621;28;20047;-80
2022/01/09 07:18:58;;;;;;;0.10;0.10;;;5.00;99.90;;;;;;5132160;28;20055;-82
2022/01/09 07:21:25;;;;;;;0.10;0.10;;;5.00;99.90;;;;;;5131810;28;20498;-82
2022/01/09 07:23:52;;;;;;;0.10;0.10;;;5.00;99.90;;;;;;5131671;28;20118;-82
2022/01/09 07:26:18;;;;;;;0.10;0.10;;;5.00;99.90;;;;;;5132075;28;20101;-81
2022/01/09 07:28:45;;;;;;;0.10;0.10;;;5.00;99.90;;;;;;5098461;28;20057;-81
2022/01/09 07:31:12;;;;;;;0.00;0.00;;;5.00;99.90;;;;;;5098426;28;20511;-82
2022/01/09 07:33:39;;;;;;;0.10;0.10;;;5.50;99.90;;;;;;5114564;28;20036;-81
2022/01/09 07:36:05;;;;;;;0.10;0.10;;;5.00;99.90;;;;;;5114241;28;20038;-82
2022/01/09 07:38:32;;;;;;;0.10;0.10;;;5.30;99.90;;;;;;5131501;28;20039;-83
2022/01/09 07:40:59;;;;;;;0.10;0.10;;;5.00;99.90;;;;;;5131318;28;20089;-82
2022/01/09 07:43:25;;;;;;;0.00;0.00;;;5.00;99.90;;;;;;5131863;28;20103;-81
2022/01/09 07:45:52;;;;;;;0.10;0.10;;;5.00;99.90;;;;;;5114473;28;20043;-82
2022/01/09 07:48:23;;;;;;;0.10;0.10;;;4.90;99.90;;;;;;5114615;28;20050;-83
2022/01/09 07:50:50;;;;;;;0.00;0.00;;;5.00;99.90;;;;;;5098292;28;20042;-81
2022/01/09 07:53:22;;;;;;;0.10;0.10;;;5.20;99.90;;;;;;5131146;28;20031;-81
2022/01/09 07:55:51;;;;;;;0.10;0.10;;;4.90;99.90;;;;;;5115311;28;20043;-81
2022/01/09 07:58:19;;;;;;;0.10;0.10;;;4.80;99.90;;;;;;5142214;28;20504;-80
2022/01/09 08:00:46;;;;;;;0.10;0.10;;;4.80;99.90;;;;;;5130436;28;20071;-80
2022/01/09 08:03:13;;;;;;;0.10;0.10;;;4.80;99.90;;;;;;5131276;28;20573;-80
2022/01/09 08:05:40;;;;;;;0.10;0.10;;;4.80;99.90;;;;;;5148094;28;20499;-80
2022/01/09 08:08:07;;;;;;;0.10;0.10;;;4.80;99.90;;;;;;5097397;28;20028;-81
2022/01/09 08:10:34;;;;;;;0.10;0.10;;;4.90;99.90;;;;;;5131050;28;20047;-80
2022/01/09 08:13:01;;;;;;;0.10;0.10;;;4.80;99.90;;;;;;5147567;28;20853;-80
2022/01/09 08:15:28;;;;;;;0.10;0.10;;;4.80;99.90;;;;;;5114271;28;20048;-85
2022/01/09 08:17:55;;;;;;;0.10;0.10;;;4.80;99.90;;;;;;5129374;28;20040;-81
2022/01/09 08:20:22;;;;;;;0.10;0.10;;;4.80;99.90;;;;;;5113755;28;20038;-80
2022/01/09 08:22:49;;;;;;;0.10;0.10;;;4.80;99.90;;;;;;5128740;28;20044;-82
2022/01/09 08:25:18;;;;;;;0.10;0.10;;;5.40;99.90;;;;;;5163969;27;20035;-81
2022/01/09 08:27:46;;;;;;;0.10;0.10;;;4.80;99.90;;;;;;5145868;28;20122;-83
2022/01/09 08:30:15;;;;;;;0.00;0.00;;;4.80;99.90;;;;;;5117063;28;20035;-80
2022/01/09 08:32:42;;;;;;;0.00;0.00;;;5.30;99.90;;;;;;5130238;28;20084;-80
2022/01/09 08:35:10;;;;;;;0.10;0.10;;;4.90;99.90;;;;;;5130059;28;20040;-82
2022/01/09 08:37:37;;;;;;;0.10;0.10;;;4.80;99.90;;;;;;5130210;28;20116;-82
2022/01/09 08:40:04;;;;;;;0.10;0.10;;;4.70;99.90;;;;;;5112830;28;20118;-80
2022/01/09 08:42:31;;;;;;;0.10;0.10;;;4.80;99.90;;;;;;5147279;28;20084;-81
2022/01/09 08:44:58;;;;;;;0.10;0.10;;;4.80;99.90;;;;;;5113208;28;20481;-83
2022/01/09 08:47:25;;;;;;;0.10;0.10;;;4.80;99.90;;;;;;5096703;28;20499;-84
2022/01/09 08:49:51;;;;;;;0.10;0.10;;;4.80;99.90;;;;;;5096457;28;20532;-84
2022/01/09 08:52:18;;;;;;;0.10;0.10;;;4.80;99.90;;;;;;5129787;28;20046;-84
2022/01/09 08:54:45;;;;;;;0.10;0.10;;;4.80;99.90;;;;;;5092717;28;20046;-83
2022/01/09 08:57:11;;;;;;;0.10;0.10;;;5.50;99.90;;;;;;5112865;28;20038;-84
2022/01/09 08:59:38;;;;;;;0.10;0.10;;;4.70;99.90;;;;;;5135852;28;20487;-81
2022/01/09 09:02:05;;;;;;;0.10;0.10;;;4.70;99.90;;;;;;5108923;28;20842;-81
2022/01/09 09:04:31;;;;;;;0.10;0.10;;;4.70;99.90;;;;;;5109407;28;20039;-81
2022/01/09 09:06:58;;;;;;;0.10;0.10;;;5.10;99.90;;;;;;5120090;28;20043;-84
2022/01/09 09:09:25;;;;;;;0.10;0.10;;;4.70;99.90;;;;;;5117996;28;20092;-84
2022/01/09 09:11:52;;;;;;;0.10;0.10;;;4.70;99.90;;;;;;5112866;28;20078;-83
2022/01/09 09:14:20;;;;;;;0.10;0.10;;;4.70;99.90;;;;;;5096216;28;20094;-83
2022/01/09 09:16:47;;;;;;;0.10;0.10;;;5.00;99.90;;;;;;5112913;28;20051;-79
2022/01/09 09:19:14;;;;;;;0.10;0.10;;;4.70;99.90;;;;;;5113175;28;20051;-83
2022/01/09 09:21:41;;;;;;;0.10;0.10;;;4.80;99.90;;;;;;5112740;28;20040;-82
2022/01/09 09:24:07;;;;;;;0.10;0.10;;;4.70;99.90;;;;;;5129444;28;20050;-82
2022/01/09 09:26:34;;;;;;;0.10;0.10;;;4.80;99.90;;;;;;5096134;28;20191;-80
2022/01/09 09:29:01;;;;;;;0.10;0.10;;;4.80;99.90;;;;;;5091907;28;20043;-83
2022/01/09 09:31:27;;;;;;;0.10;0.10;;;4.90;99.90;;;;;;5111002;28;20556;-82
2022/01/09 09:33:54;;;;;;;0.10;0.10;;;4.90;99.90;;;;;;5128807;28;20047;-81
2022/01/09 09:36:23;;;;;;;0.10;0.10;;;4.90;99.90;;;;;;5095139;28;20039;-83
2022/01/09 09:38:50;;;;;;;0.10;0.10;;;4.90;99.90;;;;;;5129564;28;20035;-84
2022/01/09 09:41:17;;;;;;;0.10;0.10;;;4.70;99.90;;;;;;5129520;28;20134;-82
2022/01/09 09:43:45;;;;;;;0.10;0.10;;;5.10;99.90;;;;;;5146771;28;20078;-80
2022/01/09 09:46:13;;;;;;;0.10;0.10;;;4.90;99.90;;;;;;5107570;28;20032;-83
2022/01/09 09:48:40;;;;;;;0.08;0.08;;;4.90;99.90;;;;;;5156652;28;20055;-83
2022/01/09 09:51:07;;;;;;;0.10;0.10;;;4.90;99.90;;;;;;5106316;28;20044;-80
2022/01/09 09:53:34;;;;;;;0.10;0.10;;;4.90;99.90;;;;;;5112603;28;20038;-83
2022/01/09 09:56:01;;;;;;;0.10;0.10;;;4.90;99.90;;;;;;5095921;28;20844;-80
2022/01/09 09:58:28;;;;;;;0.10;0.10;;;4.90;99.90;;;;;;5095671;28;20432;-80
2022/01/09 10:00:56;;;;;;;0.10;0.10;;;4.90;99.90;;;;;;5133988;28;20134;-80
2022/01/09 10:03:28;;;;;;;0.10;0.10;;;4.90;99.90;;;;;;5116808;28;20411;-81
2022/01/09 10:05:56;;;;;;;0.10;0.10;;;4.90;99.90;;;;;;5116207;28;20047;-81
2022/01/09 10:08:38;;;;;;;0.10;0.10;;;5.00;99.90;;;;;;5150441;27;20035;-83
2022/01/09 10:11:16;;;;;;;0.10;0.10;;;5.10;99.90;;;;;;5134078;28;20044;-80
2022/01/09 10:13:43;;;;;;;0.10;0.10;;;4.90;99.90;;;;;;5133763;28;20044;-82
2022/01/09 10:16:11;;;;;;;0.10;0.10;;;5.00;99.90;;;;;;5149953;28;20495;-80
2022/01/09 10:18:49;;;;;;;0.10;0.10;;;5.00;99.90;;;;;;5133497;28;20097;-82
2022/01/09 10:21:18;;;;;;;0.00;0.00;;;5.00;99.90;;;;;;5117046;28;20040;-83
2022/01/09 10:24:11;;;;;;;0.10;0.10;;;5.10;99.90;;;;;;5133085;28;20036;-82
2022/01/09 10:26:40;;;;;;;0.10;0.10;;;5.10;99.90;;;;;;5133102;28;20071;-83
2022/01/09 10:29:08;;;;;;;0.10;0.10;;;5.00;99.90;;;;;;5132167;28;20036;-81
2022/01/09 10:31:46;;;;;;;0.10;0.10;;;5.10;99.90;;;;;;5132673;28;20389;-83
2022/01/09 10:34:16;;;;;;;0.10;0.10;;;5.00;99.90;;;;;;5150095;28;20507;-83
2022/01/09 10:36:49;;;;;;;0.10;0.10;;;5.10;99.90;;;;;;5133682;28;20093;-81
2022/01/09 10:39:18;;;;;;;0.10;0.10;;;5.10;99.90;;;;;;5132825;28;20050;-81
2022/01/09 10:41:52;;;;;;;0.00;0.00;;;5.10;99.90;;;;;;5116001;28;20085;-82
2022/01/09 10:44:21;;;;;;;0.10;0.10;;;5.10;99.90;;;;;;5145831;28;20109;-82
2022/01/09 10:47:02;;;;;;;0.10;0.10;;;5.10;99.90;;;;;;5112115;28;20047;-82
2022/01/09 10:49:51;;;;;;;0.10;0.10;;;5.10;99.90;;;;;;5165066;27;20036;-82
2022/01/09 10:52:19;;;;;;;0.10;0.10;;;5.10;99.90;;;;;;5133121;28;20499;-82
2022/01/09 10:54:49;;;;;;;0.10;0.10;;;5.30;99.90;;;;;;5132448;28;20085;-81
2022/01/09 10:57:18;;;;;;;0.10;0.10;;;5.10;99.90;;;;;;5132211;28;20666;-81
2022/01/09 10:59:46;;;;;;;0.10;0.10;;;5.10;99.90;;;;;;5166080;27;20043;-83
2022/01/09 11:02:14;;;;;;;0.10;0.10;;;5.00;99.90;;;;;;5149782;28;20088;-84
2022/01/09 11:04:42;;;;;;;0.10;0.10;;;5.00;99.90;;;;;;5131849;28;20063;-81
2022/01/09 11:07:10;;;;;;;0.10;0.10;;;5.00;99.90;;;;;;5114098;28;20044;-81
2022/01/09 11:09:39;;;;;;;0.10;0.10;;;5.00;99.90;;;;;;5114654;28;20057;-83
2022/01/09 11:12:08;;;;;;;1.55;0.20;;;5.10;99.90;;;;;;5113905;28;20031;-83
2022/01/09 11:14:41;;;;;;;0.10;0.10;;;5.10;99.90;;;;;;5137242;28;20027;-83
2022/01/09 11:17:09;;;;;;;0.10;0.10;;;5.10;99.90;;;;;;5128103;28;20917;-83
2022/01/09 11:19:37;;;;;;;0.10;0.10;;;5.10;99.90;;;;;;5131255;28;20078;-84
2022/01/09 11:22:10;;;;;;;0.10;0.10;;;5.10;99.90;;;;;;5165220;27;20035;-84
2022/01/09 11:25:11;;;;;;;0.10;0.10;;;5.10;99.90;;;;;;5115692;28;20035;-83
2022/01/09 11:27:56;;;;;;;0.10;0.10;;;5.10;99.90;;;;;;5162281;27;20131;-83
2022/01/09 11:30:50;;;;;;;0.10;0.10;;;5.10;99.90;;;;;;5110689;28;20518;-81
2022/01/09 11:33:43;;;;;;;0.10;0.10;;;5.40;99.90;;;;;;5115527;28;20040;-83
2022/01/09 11:36:35;;;;;;;0.10;0.10;;;5.20;99.90;;;;;;5141039;28;20047;-81
2022/01/09 11:39:23;;;;;;;0.10;0.10;;;5.20;99.90;;;;;;5156260;27;20080;-82
2022/01/09 11:42:14;;;;;;;0.10;0.10;;;5.30;99.90;;;;;;5131451;28;20123;-80
2022/01/09 11:44:48;;;;;;;0.10;0.10;;;5.30;99.90;;;;;;5130530;28;20035;-82
2022/01/09 11:47:15;;;;;;;0.10;0.10;;;5.40;99.90;;;;;;5148222;28;20050;-83
2022/01/09 11:49:54;;;;;;;0.10;0.10;;;5.40;99.90;;;;;;5114047;28;20035;-83
2022/01/09 11:52:22;;;;;;;0.10;0.10;;;5.40;99.90;;;;;;5132953;28;20488;-83
2022/01/09 11:54:51;;;;;;;0.10;0.10;;;5.40;99.90;;;;;;5131360;28;20047;-82
2022/01/09 11:57:46;;;;;;;0.10;0.10;;;5.50;99.90;;;;;;5130492;28;20040;-83
2022/01/09 12:00:31;;;;;;;0.10;0.10;;;5.50;99.90;;;;;;5147419;28;20079;-83
2022/01/09 12:02:59;;;;;;;0.10;0.10;;;5.60;99.90;;;;;;5131014;28;20135;-83
2022/01/09 12:05:26;;;;;;;0.10;0.10;;;5.60;99.90;;;;;;5113852;28;20445;-83
2022/01/09 12:07:53;;;;;;;0.10;0.10;;;5.60;99.90;;;;;;5130365;28;20492;-83
2022/01/09 12:10:37;;;;;;;0.10;0.10;;;5.70;99.90;;;;;;5130581;28;20078;-83
2022/01/09 12:13:06;;;;;;;0.10;0.10;;;5.70;99.90;;;;;;5129877;28;20483;-83
2022/01/09 12:15:42;;;;;;;0.10;0.10;;;5.70;99.90;;;;;;5142086;27;20442;-83
2022/01/09 12:18:44;;;;;;;0.10;0.10;;;5.70;99.90;;;;;;5153667;27;20047;-83
2022/01/09 12:21:36;;;;;;;0.10;0.10;;;5.70;99.90;;;;;;5109497;28;20040;-83
2022/01/09 12:24:37;;;;;;;0.10;0.10;;;5.70;99.90;;;;;;5117790;28;20039;-83
2022/01/09 12:27:35;;;;;;;0.00;0.00;;;5.60;99.90;;;;;;5147562;28;20545;-82
2022/01/09 12:30:07;;;;;;;0.10;0.10;;;5.60;99.90;;;;;;5130038;28;20093;-82
2022/01/09 12:32:52;;;;;;;0.10;0.10;;;5.50;99.90;;;;;;5130951;28;20040;-81
2022/01/09 12:35:20;;;;;;;0.10;0.10;;;5.60;99.90;;;;;;5130716;28;20092;-81
2022/01/09 12:37:50;;;;;;;0.00;0.00;;;5.60;99.90;;;;;;5130445;28;20058;-81
2022/01/09 12:40:19;;;;;;;0.10;0.10;;;5.60;99.90;;;;;;5113296;28;20051;-84
2022/01/09 12:42:48;;;;;;;0.10;0.10;;;5.60;99.90;;;;;;5130846;28;20031;-82
2022/01/09 12:45:31;;;;;;;0.10;0.10;;;5.60;99.90;;;;;;5148359;28;20075;-84
2022/01/09 12:47:59;;;;;;;0.10;0.10;;;5.60;99.90;;;;;;5130767;28;20403;-83
2022/01/09 12:50:27;;;;;;;0.10;0.10;;;5.60;99.90;;;;;;5146972;28;20048;-84
2022/01/09 12:53:24;;;;;;;0.10;0.10;;;5.60;99.90;;;;;;5147417;28;20036;-83
2022/01/09 12:56:03;;;;;;;0.10;0.10;;;5.70;99.90;;;;;;5130633;28;20039;-83
2022/01/09 12:58:42;;;;;;;0.10;0.10;;;5.70;99.90;;;;;;5130350;28;20043;-84
2022/01/09 13:01:22;;;;;;;0.10;0.10;;;5.70;99.90;;;;;;5130242;28;20079;-82
2022/01/09 13:04:19;;;;;;;0.10;0.10;;;5.70;99.90;;;;;;5130129;28;20039;-84
2022/01/09 13:06:49;;;;;;;0.03;0.03;;;6.00;99.90;;;;;;5112486;28;20139;-81
2022/01/09 13:09:22;;;;;;;0.10;0.10;;;5.80;99.90;;;;;;5129914;28;20035;-80
2022/01/09 13:12:01;;;;;;;0.10;0.10;;;5.90;99.90;;;;;;5147005;28;20039;-81